Nearby METAR Reports

 

KNUQ - Moffett Nas/Mtn, California, USA
Distance from station: N 9mi, 14km
Updated: Wed, 16-Jan-2019 1:09pm PST
Light rain, Overcast
Light rain, Overcast
 Wind from SSE
Wind: SSE 7 mph , 11 km/h, Gust: 18 mph , 30 km/h
Temperature: 57°F , 14°C
Dew Point: 52°F , 11°C
Humidity: 82%
Barometer: 29.84 inHg , 1010.5 hPa
Summary: Light Rain
Clouds: Overcast
Visibility: 6 miles , 10 km
Cloud details: Partly Cloudy 2700 ft
Overcast 3700 ft
2019/01/16 21:09 KNUQ 162109Z 15006G16KT 6SM -RA SCT027 OVC037 14/11 A2984 RMK AO2 P0001 T01390111
KSJC - San Jose, California, USA
Distance from station: NE 9mi, 14km
Updated: Wed, 16-Jan-2019 12:53pm PST
Light rain, Overcast
Light rain, Overcast
 Wind from SSE
Wind: SSE 18 mph , 30 km/h, Gust: 26 mph , 43 km/h
Temperature: 57°F , 14°C
Dew Point: 50°F , 10°C
Humidity: 77%
Barometer: 29.84 inHg , 1010.5 hPa
Summary: Light Rain
Clouds: Overcast
Visibility: 8 miles , 13 km
Cloud details: Few Clouds 100 ft
Mostly Cloudy 3800 ft
Overcast 5500 ft
2019/01/16 20:53 KSJC 162053Z 15016G23KT 8SM -RA FEW001 BKN038 OVC055 14/10 A2984 RMK AO2 PK WND 14031/2018 SLP105 P0000 60000 T01440100 58032
 
KRHV - San Jose/Reid, California, USA
Distance from station: ENE 12mi, 19km
Updated: Wed, 16-Jan-2019 12:47pm PST
Overcast
Overcast
 Wind from SE
Wind: SE 23 mph , 37 km/h
Temperature: 61°F , 16°C
Dew Point: 50°F , 10°C
Humidity: 68%
Barometer: 29.87 inHg , 1011.5 hPa
Clouds: Overcast
Visibility: 6 miles , 10 km
Cloud details: Few Clouds 2000 ft
Mostly Cloudy 4000 ft
Overcast 8000 ft
2019/01/16 20:47 KRHV 162047Z 14020KT 6SM FEW020 BKN040 OVC080 16/10 A2987 BR
KPAO - Palo Alto, California, USA
Distance from station: NNW 14mi, 23km
Updated: Wed, 16-Jan-2019 12:47pm PST
Overcast
Overcast
 Wind from SE
Wind: SE 20 mph , 31 km/h, Gust: 29 mph , 46 km/h
Temperature: 57°F , 14°C
Dew Point: 52°F , 11°C
Humidity: 82%
Barometer: 29.85 inHg , 1010.8 hPa
Clouds: Overcast
Visibility: 7 miles , 11 km
Cloud details: Partly Cloudy 2000 ft
Overcast 3700 ft
2019/01/16 20:47 KPAO 162047Z 14017G25KT 7SM SCT020 OVC037 14/11 A2985 -RA
 
KSQL - San Carlos Airpo, California, USA
Distance from station: NW 21mi, 34km
Updated: Wed, 16-Jan-2019 12:47pm PST
Light rain, Partly cloudy
Light rain, Partly cloudy
 Wind from ESE
Wind: ESE 16 mph , 26 km/h, Gust: 25 mph , 41 km/h
Summary: Light Rain
Clouds: Partly Cloudy
Visibility: 8 miles , 13 km
Cloud details: Partly Cloudy 600 ft
2019/01/16 20:47 KSQL 162047Z 12014G22KT 8SM -RA SCT006 OVC28 13/12 A2984
KWVI - Watsonville, California, USA
Distance from station: SSE 27mi, 44km
Updated: Wed, 16-Jan-2019 12:53pm PST
Overcast
Overcast
 Wind from SE
Wind: SE 22 mph , 35 km/h, Gust: 30 mph , 48 km/h
Temperature: 61°F , 16°C
Dew Point: 52°F , 11°C
Humidity: 72%
Barometer: 29.90 inHg , 1012.5 hPa
Clouds: Overcast
Visibility: 10 miles , 16 km
Cloud details: Overcast 4000 ft
2019/01/16 20:53 KWVI 162053Z AUTO 14019G26KT 10SM OVC040 16/11 A2990 RMK AO2 PK WND 15029/2043 SLP125 60000 T01560106 58030
 
KHWD - Hayward, California, USA
Distance from station: N 28mi, 44km
Updated: Wed, 16-Jan-2019 12:54pm PST
Light rain, Overcast
Light rain, Overcast
 Wind from SSE
Wind: SSE 18 mph , 30 km/h, Gust: 25 mph , 41 km/h
Temperature: 59°F , 15°C
Dew Point: 50°F , 10°C
Humidity: 72%
Barometer: 29.83 inHg , 1010.2 hPa
Summary: Light Rain
Clouds: Overcast
Visibility: 10 miles , 16 km
Cloud details: Mostly Cloudy 3800 ft
Overcast 4500 ft
2019/01/16 20:54 KHWD 162054Z 15016G22KT 10SM -RA BKN038 OVC045 15/10 A2983 RMK AO2 PK WND 15030/2025 SLP111 P0005 60007 T01500100 58029
KSFO - San Francisco, California, USA
Distance from station: NW 30mi, 49km
Updated: Wed, 16-Jan-2019 12:56pm PST
Heavy rain, Overcast
Heavy rain, Overcast
 Wind from ESE
Wind: ESE 15 mph , 24 km/h
Temperature: 55°F , 13°C
Dew Point: 48°F , 9°C
Humidity: 77%
Barometer: 29.81 inHg , 1009.5 hPa
Summary: Heavy Rain
Clouds: Overcast
Visibility: 4 miles , 6 km
Cloud details: Mostly Cloudy 2600 ft
Overcast 3600 ft
2019/01/16 20:56 KSFO 162056Z 12013KT 4SM R28R/4000VP6000FT +RA BKN026 OVC036 13/09 A2981 RMK AO2 SLP095 P0016 60020 T01280094 58031
 
KHAF - Half Moon Bay, California, USA
Distance from station: WNW 31mi, 50km
Updated: Wed, 16-Jan-2019 1:15pm PST
Light rain, Overcast
Light rain, Overcast
 Wind from S
Wind: S 35 mph , 56 km/h, Gust: 44 mph , 70 km/h
Temperature: 55°F , 13°C
Dew Point: 54°F , 12°C
Humidity: 94%
Barometer: 29.82 inHg , 1009.8 hPa
Summary: Light Rain
Clouds: Overcast
Visibility: 1 1/4 miles , 2 km
Cloud details: Mostly Cloudy 2000 ft
Overcast 2500 ft
2019/01/16 21:15 KHAF 162115Z AUTO 17030G38KT 1 1/4SM -RA BKN020 OVC025 13/12 A2982 RMK AO2 P0001
KOAK - Oakland, California, USA
Distance from station: NNW 31mi, 50km
Updated: Wed, 16-Jan-2019 1:22pm PST
Light rain, Overcast
Light rain, Overcast
 Wind from SE
Wind: SE 23 mph , 37 km/h
Temperature: 57°F , 14°C
Dew Point: 52°F , 11°C
Humidity: 82%
Barometer: 29.82 inHg , 1009.8 hPa
Summary: Light Rain
Clouds: Overcast
Visibility: 4 miles , 6 km
Cloud details: Mostly Cloudy 3300 ft
Overcast 8500 ft
2019/01/16 21:22 KOAK 162122Z 14020KT 4SM -RA BKN033 OVC085 14/11 A2982 RMK AO2 PK WND 15027/2055 P0007 T01390111
 
KLVK - Livermore, California, USA
Distance from station: NNE 31mi, 51km
Updated: Wed, 16-Jan-2019 12:53pm PST
Light rain, Overcast
Light rain, Overcast
 Wind from S
Wind: S 15 mph , 24 km/h, Gust: 26 mph , 43 km/h
Temperature: 63°F , 17°C
Dew Point: 48°F , 9°C
Humidity: 59%
Barometer: 29.83 inHg , 1010.2 hPa
Summary: Light Rain
Clouds: Overcast
Visibility: 7 miles , 11 km
Cloud details: Partly Cloudy 5000 ft
Partly Cloudy 6000 ft
Overcast 7500 ft
2019/01/16 20:53 KLVK 162053Z 18013G23KT 7SM -RA SCT050 SCT060 OVC075 17/09 A2983 RMK AO2 RAB46 SLP099 P0000 60000 T01670089 58035
KCVH - Hollister Muni, California, USA
Distance from station: SE 42mi, 68km
Updated: Wed, 16-Jan-2019 1:35pm PST
Mostly Cloudy
Mostly Cloudy
 Wind from SE
Wind: SE 30 mph , 48 km/h
Temperature: 61°F , 16°C
Dew Point: 52°F , 11°C
Humidity: 72%
Barometer: 29.89 inHg , 1012.2 hPa
Clouds: Mostly Cloudy
Visibility: 9 miles , 14 km
Cloud details: Few Clouds 3900 ft
Mostly Cloudy 5500 ft
Mostly Cloudy 9000 ft
2019/01/16 21:35 KCVH 162135Z AUTO 14026KT 9SM FEW039 BKN055 BKN090 16/11 A2989 RMK A01
 
KSNS - Salinas, California, USA
Distance from station: SSE 48mi, 77km
Updated: Wed, 16-Jan-2019 12:53pm PST
Overcast
Overcast
 Wind from SE
Wind: SE 37 mph , 59 km/h, Gust: 44 mph , 70 km/h
Temperature: 63°F , 17°C
Dew Point: 52°F , 11°C
Humidity: 68%
Barometer: 29.90 inHg , 1012.5 hPa
Clouds: Overcast
Visibility: 10 miles , 16 km
Cloud details: Mostly Cloudy 5000 ft
Overcast 6000 ft
2019/01/16 20:53 KSNS 162053Z 14032G38KT 10SM BKN050 OVC060 17/11 A2990 RMK AO2 PK WND 14038/2053 SLP133 T01670106 58029
KMRY - Monterey, California, USA
Distance from station: SSE 49mi, 78km
Updated: Wed, 16-Jan-2019 12:54pm PST
Overcast
Overcast
 Wind from ESE
Wind: ESE 15 mph , 24 km/h, Gust: 22 mph , 35 km/h
Temperature: 64°F , 18°C
Dew Point: 50°F , 10°C
Humidity: 60%
Barometer: 29.89 inHg , 1012.2 hPa
Clouds: Overcast
Visibility: 10 miles , 16 km
Cloud details: Few Clouds 3900 ft
Partly Cloudy 6000 ft
Overcast 10000 ft
2019/01/16 20:54 KMRY 162054Z 11013G19KT 10SM FEW039 SCT060 OVC100 18/10 A2989 RMK AO2 SLP132 T01780100 58031
 
KCCR - Concord, California, USA
Distance from station: N 50mi, 81km
Updated: Wed, 16-Jan-2019 12:53pm PST
Rain, Overcast
Rain, Overcast
 Wind from SSE
Wind: SSE 10 mph , 17 km/h
Temperature: 59°F , 15°C
Dew Point: 50°F , 10°C
Humidity: 72%
Barometer: 29.83 inHg , 1010.2 hPa
Summary: Rain
Clouds: Overcast
Visibility: 4 miles , 6 km
Cloud details: Mostly Cloudy 4000 ft
Overcast 5000 ft
2019/01/16 20:53 KCCR 162053Z 16009KT 4SM RA BKN040 OVC050 15/10 A2983 RMK AO2 PRESFR SLP087 P0007 60009 T01500100 58029

Metar display script from Saratoga-Weather.org